KGGE

Georgetown County Airport

Georgetown, South Carolina, USA
METAR KGGE 201615Z AUTO 23005KT 10SM CLR 30/23 A3008 RMK AO2
Observed Flight Rules
Aug-20 @ 16:15 UTC (9 minutes ago) Visual Flight Rules
Wind Visibility Clouds
230° at 5 knots 10 miles
  • Clear skies
Temperatures Readings
Current 30°C / 86°F
Dewpoint 23°C / 73°F
Humidity 66%
Altimeter 30.08" Hg
Pressure 1019 hPa
Elevation 12
METAR KGGE 201615Z AUTO 23005KT 10SM CLR 30/23 A3008 RMK AO2
Observed Flight Rules
Aug-20 @ 16:15 UTC
(9 minutes ago)
VFR
Wind Visibility
230° at 5 knots 10 miles
Clouds
  • Clear skies
Temperature Dewpoint
30°C / 86°F 23°C / 73°F
Humidity Altimeter Pressure
66% 30.08" Hg 1019 hPa